Time;durP1;ratioP1;P1;durP2;ratioP2;P2;SDS_P1;SDS_P2;PMS_P1;PMS_P2;Temp;Humidity;BMP_temperature;BMP_pressure;BME280_temperature;BME280_humidity;BME280_pressure;Samples;Min_cycle;Max_cycle;Signal;HPM_P1;HPM_P2
2023/12/23 00:01:25;;;;;;;3.00;0.40;;;7.70;99.90;;;;;;4961474;28;20033;-81
2023/12/23 00:03:50;;;;;;;0.90;0.40;;;7.70;99.90;;;;;;4976196;28;20058;-82
2023/12/23 00:06:17;;;;;;;2.53;0.40;;;7.70;99.90;;;;;;4976827;28;20026;-81
2023/12/23 00:08:42;;;;;;;1.20;0.38;;;7.70;99.90;;;;;;4985841;28;20037;-82
2023/12/23 00:11:08;;;;;;;1.02;0.30;;;7.70;99.90;;;;;;4972295;28;20030;-82
2023/12/23 00:13:33;;;;;;;3.25;0.52;;;7.70;99.90;;;;;;4976878;28;20030;-82
2023/12/23 00:15:59;;;;;;;0.73;0.30;;;7.70;99.90;;;;;;4981775;28;20138;-82
2023/12/23 00:18:25;;;;;;;1.20;0.40;;;7.70;99.90;;;;;;4973581;28;20038;-82
2023/12/23 00:20:50;;;;;;;0.50;0.40;;;7.70;99.90;;;;;;4975642;28;20027;-82
2023/12/23 00:23:16;;;;;;;6.00;3.53;;;7.70;99.90;;;;;;4989222;28;20420;-82
2023/12/23 00:25:41;;;;;;;1.65;0.50;;;7.70;99.90;;;;;;4977411;28;20050;-82
2023/12/23 00:28:07;;;;;;;1.20;0.30;;;7.70;99.90;;;;;;4970404;28;20027;-81
2023/12/23 00:30:33;;;;;;;4.53;0.40;;;7.70;99.90;;;;;;4974320;28;20030;-82
2023/12/23 00:32:58;;;;;;;2.00;0.45;;;7.70;99.90;;;;;;4991867;28;20058;-82
2023/12/23 00:35:26;;;;;;;3.22;0.30;;;7.70;99.90;;;;;;4974202;28;20033;-82
2023/12/23 00:37:51;;;;;;;2.15;0.30;;;7.70;99.90;;;;;;4971818;28;20058;-83
2023/12/23 00:40:17;;;;;;;1.17;0.50;;;7.70;99.90;;;;;;4975268;28;20031;-83
2023/12/23 00:42:43;;;;;;;2.55;0.60;;;7.70;99.90;;;;;;4978710;28;20502;-83
2023/12/23 00:45:08;;;;;;;2.60;0.47;;;7.60;99.90;;;;;;4973990;28;20118;-83
2023/12/23 00:47:34;;;;;;;1.02;0.30;;;7.70;99.90;;;;;;4962930;28;20034;-82
2023/12/23 00:50:00;;;;;;;1.50;0.30;;;7.60;99.90;;;;;;4978482;28;20029;-82
2023/12/23 00:52:25;;;;;;;1.35;0.32;;;7.60;99.90;;;;;;4959326;28;20030;-82
2023/12/23 00:54:51;;;;;;;0.93;0.40;;;7.60;99.90;;;;;;4960493;28;20369;-83
2023/12/23 00:57:16;;;;;;;3.17;0.43;;;7.60;99.90;;;;;;4972863;28;20484;-82
2023/12/23 00:59:42;;;;;;;2.55;0.50;;;7.60;99.90;;;;;;4980338;28;20031;-83
2023/12/23 01:02:08;;;;;;;2.10;0.50;;;7.50;99.90;;;;;;4975438;28;20404;-83
2023/12/23 01:04:34;;;;;;;0.70;0.40;;;7.50;99.90;;;;;;4977735;28;20022;-83
2023/12/23 01:06:59;;;;;;;2.45;0.60;;;7.50;99.90;;;;;;4979631;28;20034;-82
2023/12/23 01:09:25;;;;;;;2.40;0.40;;;7.50;99.90;;;;;;4976242;28;20038;-83
2023/12/23 01:11:51;;;;;;;2.50;0.38;;;7.50;99.90;;;;;;4974151;28;20407;-83
2023/12/23 01:14:17;;;;;;;1.17;0.30;;;7.40;99.90;;;;;;4976121;28;20043;-84
2023/12/23 01:16:42;;;;;;;2.38;0.40;;;7.40;99.90;;;;;;4973396;28;20086;-83
2023/12/23 01:19:08;;;;;;;6.88;0.60;;;7.50;99.90;;;;;;4973853;28;20416;-83
2023/12/23 01:21:33;;;;;;;2.42;0.47;;;7.40;99.90;;;;;;4988189;28;20038;-83
2023/12/23 01:23:59;;;;;;;2.03;0.50;;;7.40;99.90;;;;;;4972745;28;20025;-83
2023/12/23 01:26:25;;;;;;;2.38;0.40;;;7.40;99.90;;;;;;4973878;28;20041;-83
2023/12/23 01:28:50;;;;;;;5.05;0.60;;;7.50;99.90;;;;;;4957922;28;20786;-83
2023/12/23 01:31:18;;;;;;;2.08;0.45;;;7.40;99.90;;;;;;4970763;28;20027;-83
2023/12/23 01:33:43;;;;;;;2.17;0.50;;;7.40;99.90;;;;;;4973791;28;20023;-83
2023/12/23 01:36:09;;;;;;;2.55;0.70;;;7.40;99.90;;;;;;4964423;28;20041;-83
2023/12/23 01:38:35;;;;;;;1.90;0.73;;;7.40;99.90;;;;;;4977447;28;20030;-83
2023/12/23 01:41:00;;;;;;;3.20;0.68;;;7.50;99.90;;;;;;4966203;28;20070;-83
2023/12/23 01:43:26;;;;;;;2.67;0.70;;;7.40;99.90;;;;;;4970680;28;20085;-82
2023/12/23 01:45:56;;;;;;;2.25;0.57;;;7.40;99.90;;;;;;4970045;28;20035;-81
2023/12/23 01:48:22;;;;;;;3.58;0.50;;;7.40;99.90;;;;;;4968598;28;20027;-82
2023/12/23 01:50:50;;;;;;;2.22;0.47;;;7.40;99.90;;;;;;4983910;28;20031;-81
2023/12/23 01:53:17;;;;;;;3.50;0.47;;;7.40;99.90;;;;;;4971739;28;20415;-82
2023/12/23 01:55:43;;;;;;;3.78;0.65;;;7.40;99.90;;;;;;4988485;28;20033;-82
2023/12/23 01:58:09;;;;;;;5.07;0.60;;;7.40;99.90;;;;;;4988434;28;20385;-82
2023/12/23 02:00:34;;;;;;;3.80;0.65;;;7.30;99.90;;;;;;4972929;28;20031;-81
2023/12/23 02:03:00;;;;;;;3.00;0.70;;;7.40;99.90;;;;;;4975447;28;20030;-81
2023/12/23 02:05:26;;;;;;;3.22;0.90;;;7.40;99.90;;;;;;4956275;28;20039;-81
2023/12/23 02:07:52;;;;;;;3.90;0.70;;;7.40;99.90;;;;;;4970332;28;20039;-81
2023/12/23 02:10:19;;;;;;;5.25;0.80;;;7.40;99.90;;;;;;4976302;28;20115;-82
2023/12/23 02:13:08;;;;;;;1.52;0.40;;;7.40;99.90;;;;;;4966479;28;20452;-81
2023/12/23 02:15:37;;;;;;;3.72;0.85;;;7.40;99.90;;;;;;4973355;28;20387;-81
2023/12/23 02:18:03;;;;;;;2.58;0.80;;;7.40;99.90;;;;;;4986682;28;20110;-81
2023/12/23 02:20:28;;;;;;;7.50;0.85;;;7.40;99.90;;;;;;4970342;28;20506;-81
2023/12/23 02:22:55;;;;;;;3.72;0.73;;;7.40;99.90;;;;;;4969900;28;20035;-82
2023/12/23 02:25:22;;;;;;;4.00;0.68;;;7.40;99.90;;;;;;4955238;28;20019;-82
2023/12/23 02:27:52;;;;;;;3.67;0.70;;;7.40;99.90;;;;;;4954903;28;20019;-82
2023/12/23 02:30:19;;;;;;;4.00;0.70;;;7.40;99.90;;;;;;4971961;28;20537;-81
2023/12/23 02:32:45;;;;;;;3.00;0.55;;;7.40;99.90;;;;;;4975736;28;20027;-82
2023/12/23 02:35:14;;;;;;;2.50;0.45;;;7.40;99.90;;;;;;4973476;28;20149;-82
2023/12/23 02:37:41;;;;;;;0.95;0.40;;;7.40;99.90;;;;;;4953722;28;20023;-82
2023/12/23 02:40:08;;;;;;;4.78;0.90;;;7.40;99.90;;;;;;4967977;28;20038;-82
2023/12/23 02:42:33;;;;;;;2.97;0.50;;;7.40;99.90;;;;;;4972957;28;20472;-82
2023/12/23 02:44:59;;;;;;;1.60;0.40;;;7.30;99.90;;;;;;4975332;28;20089;-82
2023/12/23 02:47:25;;;;;;;3.63;0.75;;;7.40;99.90;;;;;;4975927;28;20113;-81
2023/12/23 02:49:50;;;;;;;1.92;0.60;;;7.40;99.90;;;;;;4969569;28;20063;-82
2023/12/23 02:52:16;;;;;;;2.30;0.73;;;7.40;99.90;;;;;;4977180;28;20077;-82
2023/12/23 02:54:41;;;;;;;1.90;0.50;;;7.40;99.90;;;;;;4970869;28;20023;-83
2023/12/23 02:57:07;;;;;;;2.67;0.50;;;7.40;99.90;;;;;;4976361;28;20181;-82
2023/12/23 02:59:32;;;;;;;1.75;0.32;;;7.30;99.90;;;;;;4976680;28;20030;-83
2023/12/23 03:01:58;;;;;;;1.15;0.60;;;7.30;99.90;;;;;;4973699;28;20031;-82
2023/12/23 03:04:24;;;;;;;0.93;0.40;;;7.30;99.90;;;;;;4971233;28;20030;-83
2023/12/23 03:06:49;;;;;;;2.13;0.43;;;7.30;99.90;;;;;;4973960;28;20065;-83
2023/12/23 03:09:15;;;;;;;1.15;0.75;;;7.30;99.90;;;;;;4975241;28;20404;-83
2023/12/23 03:11:40;;;;;;;1.98;0.20;;;7.30;99.90;;;;;;4956647;28;20113;-82
2023/12/23 03:14:06;;;;;;;0.93;0.30;;;7.20;99.90;;;;;;4984767;28;20507;-82
2023/12/23 03:16:35;;;;;;;0.43;0.20;;;7.20;99.90;;;;;;4973088;28;20098;-82
2023/12/23 03:19:02;;;;;;;0.43;0.20;;;7.20;99.90;;;;;;4990511;28;20045;-82
2023/12/23 03:21:27;;;;;;;0.85;0.32;;;7.20;99.90;;;;;;4968156;28;20057;-82
2023/12/23 03:23:53;;;;;;;0.32;0.13;;;7.20;99.90;;;;;;4985569;28;20051;-82
2023/12/23 03:26:19;;;;;;;1.48;0.22;;;7.20;99.90;;;;;;4974613;28;20506;-83
2023/12/23 03:28:44;;;;;;;1.63;0.30;;;7.20;99.90;;;;;;4955563;28;20031;-83
2023/12/23 03:31:10;;;;;;;0.32;0.10;;;7.20;99.90;;;;;;4970836;28;20030;-82
2023/12/23 03:33:35;;;;;;;1.13;0.47;;;7.20;99.90;;;;;;4973570;28;20029;-82
2023/12/23 03:36:01;;;;;;;0.43;0.15;;;7.20;99.90;;;;;;4971965;28;20035;-82
2023/12/23 03:38:27;;;;;;;1.77;0.30;;;7.20;99.90;;;;;;4969423;28;20031;-82
2023/12/23 03:40:53;;;;;;;0.30;0.10;;;7.20;99.90;;;;;;4973080;28;20034;-82
2023/12/23 03:43:19;;;;;;;0.60;0.10;;;7.10;99.90;;;;;;4974028;28;20038;-83
2023/12/23 03:45:44;;;;;;;0.55;0.10;;;7.10;99.90;;;;;;4972795;28;20026;-82
2023/12/23 03:48:10;;;;;;;0.52;0.20;;;7.20;99.90;;;;;;4957576;28;20069;-82
2023/12/23 03:50:36;;;;;;;0.63;0.15;;;7.20;99.90;;;;;;4974695;28;20040;-83
2023/12/23 03:53:01;;;;;;;1.08;0.10;;;7.10;99.90;;;;;;4977162;28;20033;-83
2023/12/23 03:55:32;;;;;;;0.13;0.10;;;7.20;99.90;;;;;;4974019;28;20019;-83
2023/12/23 03:57:58;;;;;;;0.20;0.10;;;7.10;99.90;;;;;;4977715;28;20087;-83
2023/12/23 04:00:25;;;;;;;0.45;0.10;;;7.10;99.90;;;;;;4976565;28;20027;-81
2023/12/23 04:02:51;;;;;;;0.10;0.10;;;7.10;99.90;;;;;;4977911;28;20023;-83
2023/12/23 04:05:16;;;;;;;0.38;0.15;;;7.10;99.90;;;;;;4990502;28;20046;-83
2023/12/23 04:07:42;;;;;;;0.35;0.20;;;7.10;99.90;;;;;;4981871;28;20023;-83
2023/12/23 04:10:08;;;;;;;0.45;0.20;;;7.10;99.90;;;;;;4990247;28;20118;-83
2023/12/23 04:12:33;;;;;;;0.30;0.10;;;7.10;99.90;;;;;;4985638;28;20045;-83
2023/12/23 04:14:59;;;;;;;0.20;0.10;;;7.10;99.90;;;;;;4974537;28;20064;-83
2023/12/23 04:17:25;;;;;;;0.40;0.20;;;7.10;99.90;;;;;;4979043;28;20101;-83
2023/12/23 04:19:50;;;;;;;0.28;0.13;;;7.10;99.90;;;;;;4970847;28;20077;-82
2023/12/23 04:22:16;;;;;;;0.50;0.20;;;7.10;99.90;;;;;;4969286;28;20052;-82
2023/12/23 04:24:42;;;;;;;0.40;0.20;;;7.10;99.90;;;;;;4972340;28;20061;-82
2023/12/23 04:27:08;;;;;;;0.28;0.13;;;7.10;99.90;;;;;;4972960;28;20027;-82
2023/12/23 04:29:33;;;;;;;0.32;0.10;;;7.10;99.90;;;;;;4971024;28;20164;-83
2023/12/23 04:31:59;;;;;;;0.10;0.10;;;7.10;99.90;;;;;;4959398;28;20027;-83
2023/12/23 04:34:24;;;;;;;0.10;0.10;;;7.10;99.90;;;;;;4978673;28;20041;-83
2023/12/23 04:36:50;;;;;;;0.30;0.10;;;7.10;99.90;;;;;;4977145;28;20027;-83
2023/12/23 04:39:17;;;;;;;0.10;0.10;;;7.10;99.90;;;;;;4976252;28;20065;-83
2023/12/23 04:41:47;;;;;;;0.50;0.30;;;7.10;99.90;;;;;;4956962;28;20030;-82
2023/12/23 04:44:13;;;;;;;0.47;0.30;;;7.10;99.90;;;;;;4958446;28;20031;-83
2023/12/23 04:46:40;;;;;;;0.47;0.15;;;7.10;99.90;;;;;;4971955;28;20038;-82
2023/12/23 04:49:05;;;;;;;0.57;0.10;;;7.00;99.90;;;;;;4978885;28;20035;-83
2023/12/23 04:51:31;;;;;;;0.28;0.17;;;7.10;99.90;;;;;;4975290;28;20031;-83
2023/12/23 04:53:57;;;;;;;0.30;0.10;;;7.10;99.90;;;;;;4976744;28;20035;-83
2023/12/23 04:56:23;;;;;;;1.08;0.20;;;7.10;99.90;;;;;;4983740;28;20026;-83
2023/12/23 04:58:48;;;;;;;0.55;0.13;;;7.10;99.90;;;;;;4958889;28;20509;-83
2023/12/23 05:01:14;;;;;;;0.10;0.10;;;7.10;99.90;;;;;;4972754;28;20113;-83
2023/12/23 05:03:40;;;;;;;0.60;0.20;;;7.10;99.90;;;;;;4954775;28;20080;-83
2023/12/23 05:06:06;;;;;;;0.60;0.40;;;7.10;99.90;;;;;;4987917;28;20031;-83
2023/12/23 05:08:32;;;;;;;0.25;0.10;;;7.10;99.90;;;;;;4969349;28;20031;-83
2023/12/23 05:10:58;;;;;;;0.52;0.20;;;7.00;99.90;;;;;;4974388;28;20081;-82
2023/12/23 05:13:24;;;;;;;0.65;0.13;;;7.00;99.90;;;;;;4976283;28;20370;-83
2023/12/23 05:15:50;;;;;;;0.73;0.40;;;7.00;99.90;;;;;;4953551;28;20038;-83
2023/12/23 05:18:16;;;;;;;0.22;0.08;;;7.00;99.90;;;;;;4956585;28;20027;-83
2023/12/23 05:20:42;;;;;;;1.05;0.20;;;7.00;99.90;;;;;;4972864;28;20472;-83
2023/12/23 05:23:07;;;;;;;0.25;0.15;;;7.00;99.90;;;;;;4971465;28;20395;-82
2023/12/23 05:25:33;;;;;;;0.45;0.30;;;7.00;99.90;;;;;;4957975;28;20082;-83
2023/12/23 05:27:59;;;;;;;0.20;0.10;;;7.00;99.90;;;;;;4973277;28;20026;-82
2023/12/23 05:30:25;;;;;;;0.50;0.20;;;6.90;99.90;;;;;;4978418;28;20078;-83
2023/12/23 05:32:50;;;;;;;0.20;0.10;;;7.00;99.90;;;;;;4956600;28;20126;-82
2023/12/23 05:35:16;;;;;;;0.40;0.20;;;6.90;99.90;;;;;;4960266;28;20061;-82
2023/12/23 05:37:42;;;;;;;1.63;0.30;;;6.90;99.90;;;;;;4969636;28;20027;-83
2023/12/23 05:40:09;;;;;;;0.75;0.13;;;6.90;99.90;;;;;;4963585;28;20456;-83
2023/12/23 05:42:34;;;;;;;0.50;0.20;;;6.90;99.90;;;;;;4978820;28;20114;-83
2023/12/23 05:45:00;;;;;;;0.28;0.17;;;6.90;99.90;;;;;;4957043;28;20584;-83
2023/12/23 05:47:26;;;;;;;0.30;0.28;;;7.00;99.90;;;;;;4976176;28;20023;-83
2023/12/23 05:49:51;;;;;;;1.15;0.20;;;7.00;99.90;;;;;;4959178;28;20146;-83
2023/12/23 05:52:17;;;;;;;0.10;0.10;;;7.00;99.90;;;;;;4973597;28;20031;-82
2023/12/23 05:54:42;;;;;;;0.85;0.30;;;7.00;99.90;;;;;;4972967;28;20027;-83
2023/12/23 05:57:08;;;;;;;0.40;0.20;;;7.00;99.90;;;;;;4966683;28;20194;-82
2023/12/23 05:59:33;;;;;;;0.40;0.13;;;7.00;99.90;;;;;;4955775;28;20031;-82
2023/12/23 06:01:59;;;;;;;0.52;0.20;;;7.00;99.90;;;;;;4974587;28;20034;-82
2023/12/23 06:04:24;;;;;;;0.70;0.20;;;7.00;99.90;;;;;;4972288;28;20058;-82
2023/12/23 06:06:50;;;;;;;0.55;0.20;;;7.00;99.90;;;;;;4959225;28;20023;-82
2023/12/23 06:09:16;;;;;;;0.10;0.10;;;7.10;99.90;;;;;;4971370;28;20117;-81
2023/12/23 06:11:41;;;;;;;0.63;0.10;;;7.10;99.90;;;;;;4973262;28;20031;-81
2023/12/23 06:14:07;;;;;;;0.10;0.10;;;7.10;99.90;;;;;;4978934;28;20506;-79
2023/12/23 06:16:40;;;;;;;0.45;0.20;;;7.10;99.90;;;;;;4971018;28;20069;-80
2023/12/23 06:19:06;;;;;;;0.30;0.20;;;7.10;99.90;;;;;;4957114;28;20022;-80
2023/12/23 06:21:32;;;;;;;2.40;0.68;;;7.10;99.90;;;;;;4972461;28;20483;-81
2023/12/23 06:23:59;;;;;;;0.10;0.10;;;7.10;99.90;;;;;;4973530;28;20066;-80
2023/12/23 06:26:25;;;;;;;0.25;0.20;;;7.10;99.90;;;;;;4971983;28;20384;-81
2023/12/23 06:28:51;;;;;;;0.82;0.20;;;7.10;99.90;;;;;;4972390;28;20069;-81
2023/12/23 06:31:16;;;;;;;0.45;0.22;;;7.10;99.90;;;;;;4987658;28;20039;-82
2023/12/23 06:33:42;;;;;;;1.38;0.20;;;7.10;99.90;;;;;;4977888;28;20025;-81
2023/12/23 06:36:08;;;;;;;1.35;0.20;;;7.10;99.90;;;;;;4975405;28;20435;-80
2023/12/23 06:38:35;;;;;;;0.30;0.20;;;7.10;99.90;;;;;;4977115;28;20113;-81
2023/12/23 06:41:00;;;;;;;0.50;0.20;;;7.10;99.90;;;;;;4978593;28;20043;-80
2023/12/23 06:43:26;;;;;;;0.55;0.30;;;7.10;99.90;;;;;;4977312;28;20033;-81
2023/12/23 06:45:51;;;;;;;0.38;0.10;;;7.10;99.90;;;;;;4976998;28;20034;-81
2023/12/23 06:48:17;;;;;;;0.25;0.20;;;7.10;99.90;;;;;;4980238;28;20395;-82
2023/12/23 06:50:43;;;;;;;0.47;0.22;;;7.10;99.90;;;;;;4962973;28;20022;-81
2023/12/23 06:53:08;;;;;;;0.50;0.30;;;7.10;99.90;;;;;;4980050;28;20353;-81
2023/12/23 06:55:35;;;;;;;0.40;0.20;;;7.10;99.90;;;;;;4980377;28;20023;-82
2023/12/23 06:58:00;;;;;;;0.28;0.10;;;7.00;99.90;;;;;;4975241;28;20468;-81
2023/12/23 07:00:26;;;;;;;0.30;0.20;;;7.00;99.90;;;;;;4974757;28;20023;-81
2023/12/23 07:02:52;;;;;;;1.65;0.20;;;7.10;99.90;;;;;;4974838;28;20049;-80
2023/12/23 07:05:18;;;;;;;0.88;0.30;;;7.00;99.90;;;;;;4952402;28;20122;-81
2023/12/23 07:07:44;;;;;;;0.90;0.15;;;7.00;99.90;;;;;;4972121;28;20026;-82
2023/12/23 07:10:10;;;;;;;0.40;0.15;;;7.10;99.90;;;;;;4970981;28;20030;-82
2023/12/23 07:12:36;;;;;;;0.30;0.10;;;7.10;99.90;;;;;;4972770;28;20022;-83
2023/12/23 07:15:03;;;;;;;0.90;0.22;;;7.10;99.90;;;;;;4957649;28;20403;-84
2023/12/23 07:17:29;;;;;;;1.98;0.20;;;7.10;99.90;;;;;;4975101;28;20019;-82
2023/12/23 07:19:55;;;;;;;0.85;0.10;;;7.10;99.90;;;;;;4960180;28;20033;-82
2023/12/23 07:22:20;;;;;;;0.55;0.10;;;7.10;99.90;;;;;;4958778;28;20435;-81
2023/12/23 07:24:46;;;;;;;0.20;0.10;;;7.20;99.90;;;;;;4981255;28;20663;-82
2023/12/23 07:27:11;;;;;;;0.52;0.13;;;7.10;99.90;;;;;;4971739;28;20034;-82
2023/12/23 07:29:40;;;;;;;0.68;0.20;;;7.20;99.90;;;;;;4973505;28;20026;-82
2023/12/23 07:32:07;;;;;;;2.28;0.20;;;7.10;99.90;;;;;;4984204;28;20023;-81
2023/12/23 07:34:32;;;;;;;0.30;0.20;;;7.10;99.90;;;;;;4953023;28;20027;-82
2023/12/23 07:36:58;;;;;;;0.20;0.10;;;7.10;99.90;;;;;;4972667;28;20373;-82
2023/12/23 07:39:24;;;;;;;1.27;0.30;;;7.10;99.90;;;;;;4972883;28;20128;-81
2023/12/23 07:41:49;;;;;;;0.88;0.30;;;7.10;99.90;;;;;;4978288;28;20041;-82
2023/12/23 07:44:15;;;;;;;0.20;0.20;;;7.10;99.90;;;;;;4966840;28;20074;-82
2023/12/23 07:46:40;;;;;;;0.20;0.20;;;7.10;99.90;;;;;;4972546;28;20035;-82
2023/12/23 07:49:07;;;;;;;0.13;0.10;;;7.10;99.90;;;;;;4973451;28;20614;-82
2023/12/23 07:51:33;;;;;;;0.43;0.20;;;7.10;99.90;;;;;;4976117;28;20023;-83
2023/12/23 07:53:59;;;;;;;0.98;0.20;;;7.10;99.90;;;;;;4983188;28;20026;-82
2023/12/23 07:56:25;;;;;;;0.60;0.30;;;7.10;99.90;;;;;;4974069;28;20041;-83
2023/12/23 07:58:52;;;;;;;1.58;0.20;;;7.10;99.90;;;;;;4987763;28;20078;-83
2023/12/23 08:01:17;;;;;;;1.08;0.13;;;7.10;99.90;;;;;;4976922;28;20031;-83
2023/12/23 08:03:43;;;;;;;0.32;0.20;;;7.10;99.90;;;;;;4970621;28;20030;-83
2023/12/23 08:06:09;;;;;;;0.60;0.17;;;7.10;99.90;;;;;;4958767;28;20042;-83
2023/12/23 08:08:34;;;;;;;0.20;0.10;;;7.10;99.90;;;;;;4972579;28;20039;-83
2023/12/23 08:11:00;;;;;;;1.95;0.20;;;7.10;99.90;;;;;;4977204;28;20498;-83
2023/12/23 08:13:28;;;;;;;0.85;0.30;;;7.10;99.90;;;;;;4965813;28;20045;-83
2023/12/23 08:15:54;;;;;;;0.32;0.20;;;7.10;99.90;;;;;;4958205;28;20046;-83
2023/12/23 08:18:20;;;;;;;0.28;0.20;;;7.10;99.90;;;;;;4955409;28;20082;-83
2023/12/23 08:20:45;;;;;;;0.68;0.20;;;7.10;99.90;;;;;;4974511;28;20052;-82
2023/12/23 08:23:11;;;;;;;0.20;0.20;;;7.10;99.90;;;;;;4970102;28;20167;-83
2023/12/23 08:25:36;;;;;;;0.57;0.30;;;7.10;99.90;;;;;;4957523;28;20513;-83
2023/12/23 08:28:02;;;;;;;0.60;0.20;;;7.10;99.90;;;;;;4957914;28;20023;-83
2023/12/23 08:30:28;;;;;;;1.45;0.28;;;7.10;99.90;;;;;;4973969;28;20648;-83
2023/12/23 08:32:53;;;;;;;0.50;0.20;;;7.10;99.90;;;;;;4972154;28;20018;-83
2023/12/23 08:35:19;;;;;;;1.75;0.13;;;7.10;99.90;;;;;;4969414;28;20023;-83
2023/12/23 08:37:45;;;;;;;0.40;0.20;;;7.20;99.90;;;;;;4961085;28;20026;-83
2023/12/23 08:40:11;;;;;;;0.30;0.28;;;7.20;99.90;;;;;;4964234;28;20400;-83
2023/12/23 08:42:37;;;;;;;2.33;0.22;;;7.20;99.90;;;;;;4984429;28;20036;-83
2023/12/23 08:45:03;;;;;;;0.30;0.20;;;7.20;99.90;;;;;;4978818;28;20031;-83
2023/12/23 08:47:28;;;;;;;0.60;0.30;;;7.20;99.90;;;;;;4952824;28;20114;-83
2023/12/23 08:49:54;;;;;;;0.95;0.30;;;7.20;99.90;;;;;;4969132;28;20063;-83
2023/12/23 08:52:20;;;;;;;2.17;0.28;;;7.20;99.90;;;;;;4985553;28;20058;-83
2023/12/23 08:54:46;;;;;;;0.60;0.25;;;7.20;99.90;;;;;;4974510;28;20027;-82
2023/12/23 08:57:11;;;;;;;0.45;0.25;;;7.20;99.90;;;;;;4969989;28;20045;-83
2023/12/23 08:59:37;;;;;;;0.45;0.30;;;7.20;99.90;;;;;;4971812;28;20067;-83
2023/12/23 09:02:04;;;;;;;0.65;0.20;;;7.20;99.90;;;;;;4970796;28;20031;-83
2023/12/23 09:04:30;;;;;;;0.30;0.20;;;7.20;99.90;;;;;;4958856;28;20042;-83
2023/12/23 09:06:57;;;;;;;0.43;0.28;;;7.20;99.90;;;;;;4973213;28;20084;-83
2023/12/23 09:09:23;;;;;;;1.67;0.22;;;7.30;99.90;;;;;;4977889;28;20031;-83
2023/12/23 09:11:49;;;;;;;0.95;0.20;;;7.20;99.90;;;;;;4975189;28;20023;-82
2023/12/23 09:14:15;;;;;;;0.32;0.20;;;7.20;99.90;;;;;;4957570;28;20170;-83
2023/12/23 09:16:41;;;;;;;0.50;0.30;;;7.30;99.90;;;;;;4973872;28;20314;-82
2023/12/23 09:19:07;;;;;;;0.70;0.40;;;7.30;99.90;;;;;;4976433;28;20038;-83
2023/12/23 09:21:33;;;;;;;1.02;0.20;;;7.30;99.90;;;;;;4972777;28;20027;-83
2023/12/23 09:23:59;;;;;;;0.80;0.52;;;7.30;99.90;;;;;;4972373;28;20114;-83
2023/12/23 09:26:24;;;;;;;0.52;0.20;;;7.30;99.90;;;;;;4972778;28;20704;-83
2023/12/23 09:28:53;;;;;;;0.55;0.20;;;7.40;99.90;;;;;;4976579;28;20029;-83
2023/12/23 09:31:18;;;;;;;0.98;0.45;;;7.40;99.90;;;;;;4967605;28;20078;-83
2023/12/23 09:33:44;;;;;;;0.45;0.20;;;7.40;99.90;;;;;;4952181;28;20018;-83
2023/12/23 09:36:10;;;;;;;0.63;0.38;;;7.50;99.90;;;;;;4951193;28;20038;-83
2023/12/23 09:38:36;;;;;;;1.17;0.40;;;7.50;99.90;;;;;;4966175;28;20442;-83
2023/12/23 09:41:03;;;;;;;1.20;0.20;;;7.50;99.90;;;;;;4961215;28;20027;-83
2023/12/23 09:43:29;;;;;;;0.50;0.30;;;7.60;99.90;;;;;;4974260;28;20022;-82
2023/12/23 09:45:56;;;;;;;0.63;0.20;;;7.50;99.90;;;;;;4964615;28;20856;-83
2023/12/23 09:48:22;;;;;;;0.55;0.30;;;7.60;99.90;;;;;;4950930;28;20088;-83
2023/12/23 09:50:49;;;;;;;1.58;0.20;;;7.60;99.90;;;;;;4969317;28;20118;-83
2023/12/23 09:53:17;;;;;;;0.43;0.20;;;7.60;99.90;;;;;;4970776;28;21254;-82
2023/12/23 09:55:43;;;;;;;1.08;0.30;;;7.70;99.90;;;;;;4989747;28;20529;-83
2023/12/23 09:58:09;;;;;;;0.73;0.30;;;7.70;99.90;;;;;;4975458;28;20022;-82
2023/12/23 10:00:34;;;;;;;1.63;0.40;;;7.70;99.90;;;;;;4986581;28;20038;-82
2023/12/23 10:03:00;;;;;;;1.30;0.30;;;7.70;99.90;;;;;;4986720;28;20143;-82
2023/12/23 10:05:27;;;;;;;0.30;0.20;;;7.70;99.90;;;;;;4990380;28;20020;-83
2023/12/23 10:07:58;;;;;;;1.52;0.20;;;7.70;99.90;;;;;;4969825;28;20048;-82
2023/12/23 10:10:25;;;;;;;0.45;0.30;;;7.70;99.90;;;;;;4968672;28;20476;-81
2023/12/23 10:12:51;;;;;;;0.47;0.20;;;7.70;99.90;;;;;;4975113;28;20033;-81
2023/12/23 10:15:16;;;;;;;1.27;0.30;;;7.70;99.90;;;;;;4976613;28;20023;-81
2023/12/23 10:17:42;;;;;;;0.65;0.32;;;7.70;99.90;;;;;;4956600;28;20187;-81
2023/12/23 10:20:11;;;;;;;0.60;0.38;;;7.70;99.90;;;;;;4978330;28;20045;-80
2023/12/23 10:22:36;;;;;;;0.50;0.22;;;7.70;99.90;;;;;;4975522;28;20050;-80
2023/12/23 10:25:02;;;;;;;0.63;0.30;;;7.70;99.90;;;;;;4977847;28;20113;-80
2023/12/23 10:27:32;;;;;;;0.40;0.20;;;7.70;99.90;;;;;;4962902;28;20039;-81
2023/12/23 10:29:59;;;;;;;0.50;0.47;;;7.70;99.90;;;;;;4981562;28;20027;-80
2023/12/23 10:32:27;;;;;;;1.00;0.20;;;7.70;99.90;;;;;;4976360;28;20042;-81
2023/12/23 10:35:02;;;;;;;0.60;0.20;;;7.80;99.90;;;;;;4974552;28;20371;-80
2023/12/23 10:37:28;;;;;;;0.55;0.20;;;7.70;99.90;;;;;;4977634;28;20339;-81
2023/12/23 10:40:18;;;;;;;0.38;0.20;;;7.80;99.90;;;;;;4978473;28;20023;-80
2023/12/23 10:42:45;;;;;;;0.60;0.25;;;7.80;99.90;;;;;;4973177;28;20039;-81
2023/12/23 10:45:12;;;;;;;0.30;0.20;;;7.70;99.90;;;;;;4980677;28;20478;-80
2023/12/23 10:47:38;;;;;;;0.40;0.28;;;7.70;99.90;;;;;;4978708;28;20432;-81
2023/12/23 10:50:05;;;;;;;0.90;0.40;;;7.70;99.90;;;;;;4961305;28;20463;-80
2023/12/23 10:52:32;;;;;;;0.30;0.25;;;7.80;99.90;;;;;;4977216;28;20609;-80
2023/12/23 10:54:59;;;;;;;0.50;0.20;;;7.70;99.90;;;;;;4980031;28;20030;-80
2023/12/23 10:57:28;;;;;;;0.30;0.25;;;7.70;99.90;;;;;;4979958;28;20023;-81
2023/12/23 10:59:53;;;;;;;0.52;0.20;;;7.80;99.90;;;;;;4979611;28;20030;-81
2023/12/23 11:02:26;;;;;;;0.25;0.20;;;7.80;99.90;;;;;;4980564;28;20026;-81
2023/12/23 11:04:52;;;;;;;1.20;0.30;;;7.80;99.90;;;;;;4976244;28;20035;-81
2023/12/23 11:07:24;;;;;;;0.55;0.20;;;7.80;99.90;;;;;;4979265;28;20118;-81
2023/12/23 11:09:52;;;;;;;0.15;0.15;;;7.80;99.90;;;;;;4979367;28;20052;-80
2023/12/23 11:12:18;;;;;;;0.40;0.20;;;7.80;99.90;;;;;;4982668;28;20058;-80
2023/12/23 11:14:46;;;;;;;0.70;0.30;;;7.80;99.90;;;;;;4977820;28;20057;-81
2023/12/23 11:17:30;;;;;;;0.30;0.25;;;7.80;99.90;;;;;;4982094;28;20030;-81
2023/12/23 11:20:00;;;;;;;0.20;0.10;;;7.80;99.90;;;;;;4986788;28;20034;-80
2023/12/23 11:22:36;;;;;;;0.52;0.20;;;7.80;99.90;;;;;;4977818;28;20086;-81
2023/12/23 11:25:02;;;;;;;1.55;0.30;;;7.70;99.90;;;;;;4980970;28;20107;-81
2023/12/23 11:27:37;;;;;;;0.30;0.20;;;7.80;99.90;;;;;;4983159;28;20050;-80
2023/12/23 11:30:08;;;;;;;0.88;0.20;;;7.80;99.90;;;;;;4985818;28;20030;-80
2023/12/23 11:32:38;;;;;;;0.17;0.17;;;7.80;99.90;;;;;;4978238;28;20019;-80
2023/12/23 11:35:08;;;;;;;0.57;0.30;;;7.70;99.90;;;;;;4979691;28;20019;-80
2023/12/23 11:37:57;;;;;;;1.02;0.32;;;7.70;99.90;;;;;;4978785;28;20029;-81
2023/12/23 11:40:23;;;;;;;0.75;0.43;;;7.70;99.90;;;;;;4987921;28;20054;-80
2023/12/23 11:42:49;;;;;;;1.20;0.20;;;7.70;99.90;;;;;;4979778;28;20030;-80
2023/12/23 11:45:16;;;;;;;1.20;0.50;;;7.70;99.90;;;;;;4962880;28;20053;-80
2023/12/23 11:47:42;;;;;;;1.75;0.30;;;7.60;99.90;;;;;;4976225;28;20035;-80
2023/12/23 11:50:09;;;;;;;1.10;0.40;;;7.70;99.90;;;;;;4981716;28;20086;-80
2023/12/23 11:52:35;;;;;;;0.55;0.30;;;7.70;99.90;;;;;;4982008;28;20018;-80
2023/12/23 11:55:04;;;;;;;1.10;0.55;;;7.70;99.90;;;;;;4960414;28;20023;-81
2023/12/23 11:57:31;;;;;;;0.20;0.20;;;7.70;99.90;;;;;;4976438;28;20033;-81
2023/12/23 11:59:58;;;;;;;0.85;0.30;;;7.70;99.90;;;;;;4979683;28;20026;-80
2023/12/23 12:02:27;;;;;;;1.42;0.30;;;7.60;99.90;;;;;;4982052;28;20035;-80
2023/12/23 12:04:52;;;;;;;0.57;0.30;;;7.70;99.90;;;;;;4977127;28;20030;-81
2023/12/23 12:07:19;;;;;;;0.98;0.30;;;7.60;99.90;;;;;;4963387;28;20069;-80
2023/12/23 12:09:46;;;;;;;0.20;0.20;;;7.70;99.90;;;;;;4978913;28;20369;-81
2023/12/23 12:12:12;;;;;;;0.20;0.17;;;7.60;99.90;;;;;;4980048;28;20029;-81
2023/12/23 12:14:38;;;;;;;0.52;0.20;;;7.60;99.90;;;;;;4980175;28;20097;-81
2023/12/23 12:17:03;;;;;;;0.60;0.50;;;7.60;99.90;;;;;;4975407;28;20425;-81
2023/12/23 12:19:29;;;;;;;0.20;0.20;;;7.60;99.90;;;;;;4980924;28;20019;-81
2023/12/23 12:21:55;;;;;;;1.80;0.30;;;7.60;99.90;;;;;;4964142;28;20022;-81
2023/12/23 12:24:20;;;;;;;0.40;0.30;;;7.60;99.90;;;;;;4981610;28;20488;-81
2023/12/23 12:26:52;;;;;;;0.40;0.20;;;7.60;99.90;;;;;;4957993;28;20154;-81
2023/12/23 12:29:21;;;;;;;0.82;0.30;;;7.60;99.90;;;;;;4973823;28;20042;-81
2023/12/23 12:31:46;;;;;;;1.60;0.60;;;7.60;99.90;;;;;;4963658;28;20098;-81
2023/12/23 12:34:12;;;;;;;0.57;0.30;;;7.60;99.90;;;;;;4975216;28;20495;-80
2023/12/23 12:36:38;;;;;;;1.40;0.40;;;7.60;99.90;;;;;;4973776;28;20027;-81
2023/12/23 12:39:04;;;;;;;0.57;0.40;;;7.70;99.90;;;;;;4941297;28;1084775;-81
2023/12/23 12:41:30;;;;;;;1.02;0.40;;;7.70;99.90;;;;;;4961145;28;20030;-81
2023/12/23 12:43:55;;;;;;;1.88;0.40;;;7.70;99.90;;;;;;4976101;28;20030;-81
2023/12/23 12:46:21;;;;;;;0.52;0.32;;;7.80;99.90;;;;;;4974513;28;20038;-81
2023/12/23 12:48:49;;;;;;;0.77;0.30;;;7.90;99.90;;;;;;4972074;28;20569;-81
2023/12/23 12:51:18;;;;;;;0.75;0.40;;;7.90;99.90;;;;;;4980479;28;20030;-81
2023/12/23 12:53:46;;;;;;;1.45;0.30;;;7.90;99.90;;;;;;4979060;28;20022;-81